Terminal Aerodrome Forecast
Issued by NWS Cleveland, OH

Home | Current Version | Previous Version | Graphics & Text | Print | Product List | Glossary Off
Versions: 1 2 3 4 5 6 7 8 9 10 11 12 13 14 15 16 17 18 19 20 21 22

000
FTUS41 KCLE 012100 AAB
TAFERI
TAF AMD
KERI 012103Z 0121/0218 30005KT 1/2SM SN BKN006 OVC012
      TEMPO 0121/0124 27006KT 2SM -SN BKN012 OVC020
     FM020000 28008KT 3SM -SN OVC015
     FM020400 26010KT P6SM OVC015
     FM021400 27010G18KT P6SM BKN020=

USA.gov is the U.S. government's official web portal to all federal, state and local government web resources and services.